sensor_id;sensor_type;location;lat;lon;timestamp;pressure;altitude;pressure_sealevel;temperature;humidity
42433;BME280;28071;48.232;20.668;2023-05-22T00:04:50;99610.88;;;12.93;100.00
42433;BME280;28071;48.232;20.668;2023-05-22T00:09:50;99595.31;;;13.02;100.00
42433;BME280;28071;48.232;20.668;2023-05-22T00:14:50;99615.06;;;13.01;100.00
42433;BME280;28071;48.232;20.668;2023-05-22T00:19:54;99613.53;;;13.05;100.00
42433;BME280;28071;48.232;20.668;2023-05-22T00:24:54;99583.47;;;12.86;100.00
42433;BME280;28071;48.232;20.668;2023-05-22T00:29:55;99604.72;;;12.93;100.00
42433;BME280;28071;48.232;20.668;2023-05-22T00:34:55;99603.06;;;12.80;100.00
42433;BME280;28071;48.232;20.668;2023-05-22T00:39:56;99601.66;;;12.66;100.00
42433;BME280;28071;48.232;20.668;2023-05-22T00:44:56;99606.53;;;12.57;100.00
42433;BME280;28071;48.232;20.668;2023-05-22T00:49:58;99605.81;;;12.62;100.00
42433;BME280;28071;48.232;20.668;2023-05-22T00:54:58;99592.47;;;12.50;100.00
42433;BME280;28071;48.232;20.668;2023-05-22T01:00:01;99583.84;;;12.36;100.00
42433;BME280;28071;48.232;20.668;2023-05-22T01:05:04;99600.97;;;12.17;100.00
42433;BME280;28071;48.232;20.668;2023-05-22T01:10:06;99524.38;;;11.64;100.00
42433;BME280;28071;48.232;20.668;2023-05-22T01:15:34;99565.84;;;11.90;100.00
42433;BME280;28071;48.232;20.668;2023-05-22T01:21:09;99564.03;;;11.72;100.00
42433;BME280;28071;48.232;20.668;2023-05-22T01:31:38;99577.47;;;11.77;100.00
42433;BME280;28071;48.232;20.668;2023-05-22T01:36:40;99569.72;;;11.57;100.00
42433;BME280;28071;48.232;20.668;2023-05-22T01:41:43;99563.34;;;11.40;100.00
42433;BME280;28071;48.232;20.668;2023-05-22T01:46:44;99543.09;;;11.21;100.00
42433;BME280;28071;48.232;20.668;2023-05-22T01:51:52;99587.56;;;11.57;100.00
42433;BME280;28071;48.232;20.668;2023-05-22T01:56:58;99582.97;;;11.46;100.00
42433;BME280;28071;48.232;20.668;2023-05-22T02:02:09;99552.56;;;10.98;100.00
42433;BME280;28071;48.232;20.668;2023-05-22T02:07:11;99595.78;;;11.19;100.00
42433;BME280;28071;48.232;20.668;2023-05-22T02:12:13;99579.09;;;11.05;100.00
42433;BME280;28071;48.232;20.668;2023-05-22T02:17:14;99586.41;;;11.09;100.00
42433;BME280;28071;48.232;20.668;2023-05-22T02:22:17;99553.94;;;10.82;100.00
42433;BME280;28071;48.232;20.668;2023-05-22T02:27:17;99579.22;;;10.92;100.00
42433;BME280;28071;48.232;20.668;2023-05-22T02:32:18;99571.03;;;10.93;100.00
42433;BME280;28071;48.232;20.668;2023-05-22T02:37:18;99566.50;;;10.94;100.00
42433;BME280;28071;48.232;20.668;2023-05-22T02:42:18;99579.69;;;10.89;100.00
42433;BME280;28071;48.232;20.668;2023-05-22T02:47:19;99577.25;;;10.80;100.00
42433;BME280;28071;48.232;20.668;2023-05-22T02:52:19;99576.09;;;10.76;100.00
42433;BME280;28071;48.232;20.668;2023-05-22T02:57:21;99572.19;;;10.54;100.00
42433;BME280;28071;48.232;20.668;2023-05-22T03:02:24;99559.97;;;10.46;100.00
42433;BME280;28071;48.232;20.668;2023-05-22T03:07:25;99549.28;;;10.21;100.00
42433;BME280;28071;48.232;20.668;2023-05-22T03:12:28;99568.03;;;10.33;100.00
42433;BME280;28071;48.232;20.668;2023-05-22T03:17:29;99569.97;;;10.51;100.00
42433;BME280;28071;48.232;20.668;2023-05-22T03:22:29;99574.22;;;10.59;100.00
42433;BME280;28071;48.232;20.668;2023-05-22T03:27:30;99567.34;;;10.44;100.00
42433;BME280;28071;48.232;20.668;2023-05-22T03:32:30;99562.91;;;10.38;100.00
42433;BME280;28071;48.232;20.668;2023-05-22T03:37:31;99561.88;;;10.39;100.00
42433;BME280;28071;48.232;20.668;2023-05-22T03:42:31;99566.66;;;10.55;100.00
42433;BME280;28071;48.232;20.668;2023-05-22T03:47:31;99571.91;;;10.62;100.00
42433;BME280;28071;48.232;20.668;2023-05-22T03:52:32;99567.47;;;10.81;100.00
42433;BME280;28071;48.232;20.668;2023-05-22T03:57:32;99566.69;;;10.99;100.00
42433;BME280;28071;48.232;20.668;2023-05-22T04:02:33;99568.31;;;11.18;100.00
42433;BME280;28071;48.232;20.668;2023-05-22T04:07:33;99571.56;;;11.38;100.00
42433;BME280;28071;48.232;20.668;2023-05-22T04:12:34;99560.53;;;11.53;100.00
42433;BME280;28071;48.232;20.668;2023-05-22T04:17:38;99560.81;;;11.63;100.00
42433;BME280;28071;48.232;20.668;2023-05-22T04:22:40;99559.41;;;11.79;100.00
42433;BME280;28071;48.232;20.668;2023-05-22T04:27:40;99568.56;;;12.02;100.00
42433;BME280;28071;48.232;20.668;2023-05-22T04:32:42;99576.59;;;12.13;100.00
42433;BME280;28071;48.232;20.668;2023-05-22T04:37:42;99565.16;;;12.25;100.00
42433;BME280;28071;48.232;20.668;2023-05-22T04:42:44;99556.50;;;12.41;100.00
42433;BME280;28071;48.232;20.668;2023-05-22T04:47:45;99560.44;;;12.62;100.00
42433;BME280;28071;48.232;20.668;2023-05-22T04:52:46;99543.09;;;12.71;100.00
42433;BME280;28071;48.232;20.668;2023-05-22T04:57:46;99558.63;;;12.97;100.00
42433;BME280;28071;48.232;20.668;2023-05-22T05:02:46;99562.09;;;13.21;100.00
42433;BME280;28071;48.232;20.668;2023-05-22T05:07:48;99551.50;;;13.50;100.00
42433;BME280;28071;48.232;20.668;2023-05-22T05:12:49;99552.56;;;13.77;100.00
42433;BME280;28071;48.232;20.668;2023-05-22T05:17:49;99563.41;;;13.99;100.00
42433;BME280;28071;48.232;20.668;2023-05-22T05:22:50;99562.25;;;14.24;100.00
42433;BME280;28071;48.232;20.668;2023-05-22T05:27:51;99560.06;;;14.37;100.00
42433;BME280;28071;48.232;20.668;2023-05-22T05:32:52;99563.53;;;14.66;90.34
42433;BME280;28071;48.232;20.668;2023-05-22T05:37:52;99569.81;;;14.94;90.14
42433;BME280;28071;48.232;20.668;2023-05-22T05:42:52;99581.47;;;15.21;88.87
42433;BME280;28071;48.232;20.668;2023-05-22T05:47:53;99575.94;;;15.50;87.23
42433;BME280;28071;48.232;20.668;2023-05-22T05:52:53;99576.28;;;15.75;83.45
42433;BME280;28071;48.232;20.668;2023-05-22T05:57:54;99573.03;;;15.95;85.56
42433;BME280;28071;48.232;20.668;2023-05-22T06:02:54;99561.13;;;16.13;79.69
42433;BME280;28071;48.232;20.668;2023-05-22T06:07:55;99572.41;;;16.47;77.59
42433;BME280;28071;48.232;20.668;2023-05-22T06:12:57;99572.19;;;16.81;76.67
42433;BME280;28071;48.232;20.668;2023-05-22T06:17:57;99573.47;;;17.10;74.07
42433;BME280;28071;48.232;20.668;2023-05-22T06:22:58;99557.44;;;17.26;72.02
42433;BME280;28071;48.232;20.668;2023-05-22T06:27:58;99568.59;;;17.60;75.38
42433;BME280;28071;48.232;20.668;2023-05-22T06:32:59;99576.50;;;17.82;73.52
42433;BME280;28071;48.232;20.668;2023-05-22T06:38:00;99572.53;;;18.05;71.65
42433;BME280;28071;48.232;20.668;2023-05-22T06:43:01;99558.81;;;18.16;72.76
42433;BME280;28071;48.232;20.668;2023-05-22T06:48:01;99575.28;;;18.55;71.02
42433;BME280;28071;48.232;20.668;2023-05-22T06:53:01;99563.69;;;18.80;70.29
42433;BME280;28071;48.232;20.668;2023-05-22T06:58:02;99576.84;;;19.18;71.75
42433;BME280;28071;48.232;20.668;2023-05-22T07:03:02;99580.00;;;19.50;67.60
42433;BME280;28071;48.232;20.668;2023-05-22T07:08:06;99558.13;;;19.57;68.27
42433;BME280;28071;48.232;20.668;2023-05-22T07:13:07;99561.75;;;19.91;65.84
42433;BME280;28071;48.232;20.668;2023-05-22T07:18:10;99570.19;;;20.24;63.15
42433;BME280;28071;48.232;20.668;2023-05-22T07:23:11;99573.50;;;20.55;62.73
42433;BME280;28071;48.232;20.668;2023-05-22T07:28:11;99568.97;;;20.80;61.89
42433;BME280;28071;48.232;20.668;2023-05-22T07:33:12;99566.59;;;21.02;61.05
42433;BME280;28071;48.232;20.668;2023-05-22T07:38:13;99566.81;;;21.35;54.81
42433;BME280;28071;48.232;20.668;2023-05-22T07:43:13;99559.78;;;21.57;53.55
42433;BME280;28071;48.232;20.668;2023-05-22T07:48:14;99555.66;;;21.41;49.99
42433;BME280;28071;48.232;20.668;2023-05-22T07:53:15;99544.59;;;21.80;49.61
42433;BME280;28071;48.232;20.668;2023-05-22T07:58:15;99545.72;;;22.17;49.75
42433;BME280;28071;48.232;20.668;2023-05-22T08:03:16;99551.75;;;22.47;47.75
42433;BME280;28071;48.232;20.668;2023-05-22T08:08:16;99539.25;;;22.64;45.50
42433;BME280;28071;48.232;20.668;2023-05-22T08:13:17;99552.63;;;22.75;43.90
42433;BME280;28071;48.232;20.668;2023-05-22T08:18:18;99548.09;;;23.03;43.37
42433;BME280;28071;48.232;20.668;2023-05-22T08:23:19;99548.41;;;23.29;44.25
42433;BME280;28071;48.232;20.668;2023-05-22T08:28:20;99554.84;;;23.60;41.72
42433;BME280;28071;48.232;20.668;2023-05-22T08:33:20;99537.63;;;23.65;40.72
42433;BME280;28071;48.232;20.668;2023-05-22T08:38:21;99541.22;;;23.88;40.77
42433;BME280;28071;48.232;20.668;2023-05-22T08:43:22;99544.84;;;24.19;42.18
42433;BME280;28071;48.232;20.668;2023-05-22T08:48:23;99536.75;;;24.42;39.10
42433;BME280;28071;48.232;20.668;2023-05-22T08:53:25;99536.44;;;24.74;37.75
42433;BME280;28071;48.232;20.668;2023-05-22T08:58:27;99535.34;;;24.53;38.16
42433;BME280;28071;48.232;20.668;2023-05-22T09:03:28;99527.03;;;24.80;38.14
42433;BME280;28071;48.232;20.668;2023-05-22T09:08:33;99525.75;;;25.09;38.31
42433;BME280;28071;48.232;20.668;2023-05-22T09:13:33;99532.47;;;25.60;37.00
42433;BME280;28071;48.232;20.668;2023-05-22T09:18:35;99533.13;;;25.65;36.55
42433;BME280;28071;48.232;20.668;2023-05-22T09:23:36;99535.56;;;25.76;37.48
42433;BME280;28071;48.232;20.668;2023-05-22T09:28:37;99535.75;;;26.22;36.27
42433;BME280;28071;48.232;20.668;2023-05-22T09:33:37;99525.00;;;26.17;35.00
42433;BME280;28071;48.232;20.668;2023-05-22T09:38:38;99527.56;;;26.14;35.49
42433;BME280;28071;48.232;20.668;2023-05-22T09:43:48;99511.94;;;26.66;34.22
42433;BME280;28071;48.232;20.668;2023-05-22T09:48:52;99507.00;;;26.51;34.23
42433;BME280;28071;48.232;20.668;2023-05-22T09:54:01;99483.47;;;26.85;33.68
42433;BME280;28071;48.232;20.668;2023-05-22T09:59:04;99503.69;;;27.30;33.41
42433;BME280;28071;48.232;20.668;2023-05-22T10:04:07;99513.66;;;27.56;33.16
42433;BME280;28071;48.232;20.668;2023-05-22T10:09:14;99496.22;;;27.69;32.85
42433;BME280;28071;48.232;20.668;2023-05-22T10:14:16;99516.03;;;27.87;32.78
42433;BME280;28071;48.232;20.668;2023-05-22T10:19:17;99511.38;;;28.41;31.55
42433;BME280;28071;48.232;20.668;2023-05-22T10:24:17;99506.53;;;28.59;30.40
42433;BME280;28071;48.232;20.668;2023-05-22T10:29:22;99509.63;;;28.70;31.20
42433;BME280;28071;48.232;20.668;2023-05-22T10:34:30;99497.66;;;28.62;31.21
42433;BME280;28071;48.232;20.668;2023-05-22T10:39:42;99491.91;;;29.00;30.86
42433;BME280;28071;48.232;20.668;2023-05-22T10:44:46;99499.59;;;28.62;30.29
42433;BME280;28071;48.232;20.668;2023-05-22T10:49:47;99493.81;;;28.88;31.48
42433;BME280;28071;48.232;20.668;2023-05-22T10:54:53;99466.78;;;29.23;29.99
42433;BME280;28071;48.232;20.668;2023-05-22T11:00:05;99479.00;;;29.50;29.15
42433;BME280;28071;48.232;20.668;2023-05-22T11:10:13;99467.09;;;29.58;28.47
42433;BME280;28071;48.232;20.668;2023-05-22T11:15:13;99457.91;;;30.34;28.25
42433;BME280;28071;48.232;20.668;2023-05-22T11:20:21;99469.06;;;30.42;28.15
42433;BME280;28071;48.232;20.668;2023-05-22T11:25:23;99451.84;;;30.13;28.97
42433;BME280;28071;48.232;20.668;2023-05-22T11:30:24;99458.22;;;30.92;27.69
42433;BME280;28071;48.232;20.668;2023-05-22T11:35:26;99455.53;;;31.28;26.97
42433;BME280;28071;48.232;20.668;2023-05-22T11:40:27;99461.75;;;31.09;27.93
42433;BME280;28071;48.232;20.668;2023-05-22T11:45:28;99461.88;;;31.47;26.27
42433;BME280;28071;48.232;20.668;2023-05-22T11:50:29;99458.16;;;31.40;26.40
42433;BME280;28071;48.232;20.668;2023-05-22T11:55:32;99437.59;;;30.67;27.16
42433;BME280;28071;48.232;20.668;2023-05-22T12:00:32;99449.41;;;31.34;27.41
42433;BME280;28071;48.232;20.668;2023-05-22T12:05:32;99445.97;;;31.76;26.48
42433;BME280;28071;48.232;20.668;2023-05-22T12:10:33;99452.59;;;31.91;25.79
42433;BME280;28071;48.232;20.668;2023-05-22T12:15:33;99433.38;;;32.14;26.50
42433;BME280;28071;48.232;20.668;2023-05-22T12:20:34;99424.38;;;32.36;25.08
42433;BME280;28071;48.232;20.668;2023-05-22T12:25:35;99420.94;;;31.62;27.02
42433;BME280;28071;48.232;20.668;2023-05-22T12:30:39;99432.25;;;32.18;26.86
42433;BME280;28071;48.232;20.668;2023-05-22T12:35:40;99415.09;;;32.25;25.49
42433;BME280;28071;48.232;20.668;2023-05-22T12:40:41;99417.13;;;32.28;25.46
42433;BME280;28071;48.232;20.668;2023-05-22T12:45:41;99414.03;;;32.52;24.50
42433;BME280;28071;48.232;20.668;2023-05-22T12:50:43;99404.19;;;32.51;25.21
42433;BME280;28071;48.232;20.668;2023-05-22T12:55:43;99395.59;;;31.33;25.20
42433;BME280;28071;48.232;20.668;2023-05-22T13:00:44;99401.47;;;31.90;26.38
42433;BME280;28071;48.232;20.668;2023-05-22T13:05:44;99394.91;;;32.17;25.95
42433;BME280;28071;48.232;20.668;2023-05-22T13:10:45;99386.47;;;32.75;24.59
42433;BME280;28071;48.232;20.668;2023-05-22T13:15:45;99380.75;;;32.38;25.40
42433;BME280;28071;48.232;20.668;2023-05-22T13:20:46;99372.09;;;31.74;25.66
42433;BME280;28071;48.232;20.668;2023-05-22T13:25:46;99378.63;;;32.09;25.07
42433;BME280;28071;48.232;20.668;2023-05-22T13:30:46;99366.19;;;32.38;25.74
42433;BME280;28071;48.232;20.668;2023-05-22T13:35:47;99368.19;;;32.41;25.67
42433;BME280;28071;48.232;20.668;2023-05-22T13:40:47;99354.84;;;32.20;24.68
42433;BME280;28071;48.232;20.668;2023-05-22T13:45:48;99366.00;;;32.50;23.93
42433;BME280;28071;48.232;20.668;2023-05-22T13:50:50;99355.34;;;32.48;22.70
42433;BME280;28071;48.232;20.668;2023-05-22T13:55:50;99355.84;;;31.89;25.42
42433;BME280;28071;48.232;20.668;2023-05-22T14:00:50;99343.94;;;32.04;25.27
42433;BME280;28071;48.232;20.668;2023-05-22T14:05:51;99342.47;;;32.10;23.37
42433;BME280;28071;48.232;20.668;2023-05-22T14:10:52;99338.09;;;32.28;23.63
42433;BME280;28071;48.232;20.668;2023-05-22T14:15:52;99337.75;;;32.56;22.15
42433;BME280;28071;48.232;20.668;2023-05-22T14:20:53;99333.38;;;32.52;22.43
42433;BME280;28071;48.232;20.668;2023-05-22T14:25:54;99334.09;;;32.49;21.99
42433;BME280;28071;48.232;20.668;2023-05-22T14:30:54;99332.81;;;32.66;22.87
42433;BME280;28071;48.232;20.668;2023-05-22T14:35:55;99318.75;;;32.25;21.78
42433;BME280;28071;48.232;20.668;2023-05-22T14:40:55;99315.34;;;32.84;21.40
42433;BME280;28071;48.232;20.668;2023-05-22T14:45:56;99312.72;;;32.92;21.34
42433;BME280;28071;48.232;20.668;2023-05-22T14:50:57;99313.34;;;32.06;21.88
42433;BME280;28071;48.232;20.668;2023-05-22T14:55:57;99318.28;;;32.69;22.06
42433;BME280;28071;48.232;20.668;2023-05-22T15:00:57;99302.50;;;32.39;24.35
42433;BME280;28071;48.232;20.668;2023-05-22T15:05:58;99317.75;;;32.60;23.55
42433;BME280;28071;48.232;20.668;2023-05-22T15:10:58;99311.19;;;32.68;22.99
42433;BME280;28071;48.232;20.668;2023-05-22T15:15:59;99310.00;;;32.69;24.26
42433;BME280;28071;48.232;20.668;2023-05-22T15:20:59;99293.16;;;32.21;24.33
42433;BME280;28071;48.232;20.668;2023-05-22T15:26:00;99304.41;;;32.12;23.83
42433;BME280;28071;48.232;20.668;2023-05-22T15:31:00;99299.16;;;31.61;24.46
42433;BME280;28071;48.232;20.668;2023-05-22T15:36:01;99304.56;;;31.58;24.30
42433;BME280;28071;48.232;20.668;2023-05-22T15:41:01;99300.53;;;31.52;24.24
42433;BME280;28071;48.232;20.668;2023-05-22T15:46:01;99286.44;;;31.14;25.36
42433;BME280;28071;48.232;20.668;2023-05-22T15:51:02;99296.19;;;31.51;25.28
42433;BME280;28071;48.232;20.668;2023-05-22T15:56:05;99292.81;;;31.38;24.67
42433;BME280;28071;48.232;20.668;2023-05-22T16:01:06;99288.16;;;31.03;25.76
42433;BME280;28071;48.232;20.668;2023-05-22T16:06:07;99293.00;;;30.39;25.94
42433;BME280;28071;48.232;20.668;2023-05-22T16:11:07;99284.16;;;30.15;26.44
42433;BME280;28071;48.232;20.668;2023-05-22T16:16:08;99286.03;;;29.51;27.66
42433;BME280;28071;48.232;20.668;2023-05-22T16:21:08;99268.56;;;28.63;29.25
42433;BME280;28071;48.232;20.668;2023-05-22T16:26:09;99279.00;;;27.75;31.04
42433;BME280;28071;48.232;20.668;2023-05-22T16:31:09;99281.59;;;27.72;33.23
42433;BME280;28071;48.232;20.668;2023-05-22T16:36:11;99279.06;;;27.33;35.35
42433;BME280;28071;48.232;20.668;2023-05-22T16:41:12;99296.97;;;27.01;34.26
42433;BME280;28071;48.232;20.668;2023-05-22T16:46:12;99300.75;;;26.88;37.78
42433;BME280;28071;48.232;20.668;2023-05-22T16:51:13;99295.00;;;26.31;40.40
42433;BME280;28071;48.232;20.668;2023-05-22T16:56:13;99302.06;;;25.85;41.65
42433;BME280;28071;48.232;20.668;2023-05-22T17:01:16;99299.84;;;25.43;43.71
42433;BME280;28071;48.232;20.668;2023-05-22T17:06:16;99293.56;;;24.82;46.48
42433;BME280;28071;48.232;20.668;2023-05-22T17:11:16;99296.25;;;24.25;48.55
42433;BME280;28071;48.232;20.668;2023-05-22T17:16:17;99300.94;;;23.94;51.00
42433;BME280;28071;48.232;20.668;2023-05-22T17:21:17;99296.53;;;23.75;51.44
42433;BME280;28071;48.232;20.668;2023-05-22T17:26:19;99296.47;;;23.22;54.22
42433;BME280;28071;48.232;20.668;2023-05-22T17:31:20;99298.03;;;22.73;56.88
42433;BME280;28071;48.232;20.668;2023-05-22T17:36:21;99277.03;;;21.82;60.55
42433;BME280;28071;48.232;20.668;2023-05-22T17:41:22;99301.00;;;21.75;60.77
42433;BME280;28071;48.232;20.668;2023-05-22T17:46:23;99300.13;;;21.10;63.15
42433;BME280;28071;48.232;20.668;2023-05-22T17:51:23;99299.22;;;20.76;64.76
42433;BME280;28071;48.232;20.668;2023-05-22T17:56:24;99285.25;;;20.50;64.73
42433;BME280;28071;48.232;20.668;2023-05-22T18:01:25;99258.19;;;19.79;66.81
42433;BME280;28071;48.232;20.668;2023-05-22T18:06:27;99280.66;;;19.74;65.98
42433;BME280;28071;48.232;20.668;2023-05-22T18:11:28;99295.88;;;19.65;67.61
42433;BME280;28071;48.232;20.668;2023-05-22T18:16:28;99284.88;;;19.17;68.57
42433;BME280;28071;48.232;20.668;2023-05-22T18:21:29;99309.72;;;19.09;69.80
42433;BME280;28071;48.232;20.668;2023-05-22T18:26:29;99299.69;;;18.75;71.35
42433;BME280;28071;48.232;20.668;2023-05-22T18:31:30;99246.31;;;18.18;73.33
42433;BME280;28071;48.232;20.668;2023-05-22T18:36:30;99311.66;;;18.28;73.43
42433;BME280;28071;48.232;20.668;2023-05-22T18:41:31;99305.56;;;17.97;74.81
42433;BME280;28071;48.232;20.668;2023-05-22T18:46:31;99308.91;;;18.49;71.90
42433;BME280;28071;48.232;20.668;2023-05-22T18:51:32;99318.75;;;17.99;75.89
42433;BME280;28071;48.232;20.668;2023-05-22T18:56:32;99316.03;;;18.04;76.06
42433;BME280;28071;48.232;20.668;2023-05-22T19:01:32;99320.13;;;17.76;79.22
42433;BME280;28071;48.232;20.668;2023-05-22T19:06:34;99322.50;;;17.57;81.14
42433;BME280;28071;48.232;20.668;2023-05-22T19:11:35;99320.06;;;17.20;84.52
42433;BME280;28071;48.232;20.668;2023-05-22T19:16:35;99287.22;;;16.87;84.53
42433;BME280;28071;48.232;20.668;2023-05-22T19:21:36;99308.16;;;16.80;87.54
42433;BME280;28071;48.232;20.668;2023-05-22T19:26:37;99319.91;;;16.69;90.78
42433;BME280;28071;48.232;20.668;2023-05-22T19:31:37;99317.47;;;16.68;89.76
42433;BME280;28071;48.232;20.668;2023-05-22T19:36:38;99322.81;;;16.57;91.40
42433;BME280;28071;48.232;20.668;2023-05-22T19:41:38;99331.88;;;16.46;92.48
42433;BME280;28071;48.232;20.668;2023-05-22T19:46:39;99335.91;;;16.44;93.89
42433;BME280;28071;48.232;20.668;2023-05-22T19:51:40;99294.38;;;16.04;95.32
42433;BME280;28071;48.232;20.668;2023-05-22T19:56:41;99335.69;;;16.08;96.60
42433;BME280;28071;48.232;20.668;2023-05-22T20:01:41;99343.16;;;15.96;99.33
42433;BME280;28071;48.232;20.668;2023-05-22T20:06:42;99341.66;;;15.78;100.00
42433;BME280;28071;48.232;20.668;2023-05-22T20:11:44;99346.66;;;15.64;100.00
42433;BME280;28071;48.232;20.668;2023-05-22T20:16:44;99342.97;;;15.48;100.00
42433;BME280;28071;48.232;20.668;2023-05-22T20:21:45;99346.75;;;15.20;100.00
42433;BME280;28071;48.232;20.668;2023-05-22T20:26:46;99350.72;;;15.18;100.00
42433;BME280;28071;48.232;20.668;2023-05-22T20:31:47;99352.06;;;15.15;100.00
42433;BME280;28071;48.232;20.668;2023-05-22T20:36:47;99350.63;;;15.08;100.00
42433;BME280;28071;48.232;20.668;2023-05-22T20:41:48;99351.97;;;15.05;100.00
42433;BME280;28071;48.232;20.668;2023-05-22T20:46:51;99354.03;;;14.98;100.00
42433;BME280;28071;48.232;20.668;2023-05-22T20:57:03;99356.34;;;14.89;100.00
42433;BME280;28071;48.232;20.668;2023-05-22T21:02:04;99358.31;;;14.77;100.00
42433;BME280;28071;48.232;20.668;2023-05-22T21:07:04;99352.97;;;14.77;100.00
42433;BME280;28071;48.232;20.668;2023-05-22T21:12:05;99352.06;;;14.66;100.00
42433;BME280;28071;48.232;20.668;2023-05-22T21:17:06;99355.34;;;14.52;100.00
42433;BME280;28071;48.232;20.668;2023-05-22T21:22:06;99356.72;;;14.54;100.00
42433;BME280;28071;48.232;20.668;2023-05-22T21:27:06;99356.56;;;14.44;100.00
42433;BME280;28071;48.232;20.668;2023-05-22T21:32:07;99358.09;;;14.40;100.00
42433;BME280;28071;48.232;20.668;2023-05-22T21:37:07;99360.22;;;14.38;100.00
42433;BME280;28071;48.232;20.668;2023-05-22T21:42:08;99361.44;;;14.30;100.00
42433;BME280;28071;48.232;20.668;2023-05-22T21:47:09;99356.66;;;14.32;100.00
42433;BME280;28071;48.232;20.668;2023-05-22T21:52:09;99356.00;;;14.25;100.00
42433;BME280;28071;48.232;20.668;2023-05-22T21:57:10;99348.41;;;14.17;100.00
42433;BME280;28071;48.232;20.668;2023-05-22T22:02:11;99350.84;;;14.19;100.00
42433;BME280;28071;48.232;20.668;2023-05-22T22:07:12;99336.69;;;14.01;100.00
42433;BME280;28071;48.232;20.668;2023-05-22T22:12:12;99350.94;;;13.90;100.00
42433;BME280;28071;48.232;20.668;2023-05-22T22:17:13;99351.84;;;13.96;100.00
42433;BME280;28071;48.232;20.668;2023-05-22T22:22:15;99355.16;;;14.03;100.00
42433;BME280;28071;48.232;20.668;2023-05-22T22:27:16;99340.19;;;13.85;100.00
42433;BME280;28071;48.232;20.668;2023-05-22T22:32:16;99349.25;;;13.84;100.00
42433;BME280;28071;48.232;20.668;2023-05-22T22:37:17;99349.25;;;13.67;100.00
42433;BME280;28071;48.232;20.668;2023-05-22T22:42:18;99344.50;;;13.69;100.00
42433;BME280;28071;48.232;20.668;2023-05-22T22:47:19;99352.97;;;13.66;100.00
42433;BME280;28071;48.232;20.668;2023-05-22T22:52:21;99355.19;;;13.69;100.00
42433;BME280;28071;48.232;20.668;2023-05-22T22:57:21;99340.66;;;13.48;100.00
42433;BME280;28071;48.232;20.668;2023-05-22T23:02:22;99347.22;;;13.41;100.00
42433;BME280;28071;48.232;20.668;2023-05-22T23:07:22;99348.69;;;13.48;100.00
42433;BME280;28071;48.232;20.668;2023-05-22T23:12:23;99322.50;;;13.33;100.00
42433;BME280;28071;48.232;20.668;2023-05-22T23:17:23;99340.41;;;13.33;100.00
42433;BME280;28071;48.232;20.668;2023-05-22T23:22:24;99339.75;;;13.26;100.00
42433;BME280;28071;48.232;20.668;2023-05-22T23:27:24;99313.44;;;13.06;100.00
42433;BME280;28071;48.232;20.668;2023-05-22T23:32:25;99325.13;;;13.17;100.00
42433;BME280;28071;48.232;20.668;2023-05-22T23:37:25;99331.16;;;13.24;100.00
42433;BME280;28071;48.232;20.668;2023-05-22T23:42:26;99338.28;;;13.06;100.00
42433;BME280;28071;48.232;20.668;2023-05-22T23:47:26;99317.44;;;12.92;100.00
42433;BME280;28071;48.232;20.668;2023-05-22T23:52:27;99330.22;;;12.90;100.00
42433;BME280;28071;48.232;20.668;2023-05-22T23:57:27;99329.56;;;12.83;100.00
